Pickens, Arkansas
Current Conditions -  °F | °C
As of 8:53 AM on Friday 19 Dec 2014 (Local Time) from KLLQ Reporting Station
Overcast Overcast  
Wind Chill: 40°   Ceiling: 4000
Heat Index: 44°   Visibility: 8mi
Dew Point: 40°   Wind: 8mph
Humidity: 85%   Direction: 50°NE
Pressure: 30.23"   Gusts: NA
Location:  33.85°N, 91.48°W
Report Text: KLLQ 191453Z AUTO 05007KT 8SM FEW022 SCT027 OVC040 07/04 A3023 RMK AO2 SLP238 T00670044 53010
Loading
Personal Weather Stations






























Interactive Weather Map New forecast layout! Learn more

10-Day Weather Forecast

Advertisements
Track Severe Weather on mobile